Time,TemperatureF,DewpointF,PressureIn,WindDirection,WindDirectionDegrees,WindSpeedMPH,WindSpeedGustMPH,Humidity,HourlyPrecipIn,Conditions,Clouds,dailyrainin,SoftwareType,DateUTC
2013-03-10 00:00:00,48.2,33.7,30.17,North,5,0.0,1.0,57,0.00,,,0.00,WeatherCatV1.11B39,2013-03-10 05:00:00,
2013-03-10 00:05:00,47.9,33.4,30.17,North,5,0.0,0.0,57,0.00,,,0.00,WeatherCatV1.11B39,2013-03-10 05:05:00,
2013-03-10 00:10:00,47.9,33.4,30.17,North,5,0.0,2.0,57,0.00,,,0.00,WeatherCatV1.11B39,2013-03-10 05:10:00,
2013-03-10 00:15:00,47.7,33.2,30.17,North,5,0.0,1.0,57,0.00,,,0.00,WeatherCatV1.11B39,2013-03-10 05:15:00,
2013-03-10 00:20:00,47.7,33.2,30.16,North,5,2.0,2.0,57,0.00,,,0.00,WeatherCatV1.11B39,2013-03-10 05:20:00,
2013-03-10 00:24:00,47.7,33.7,30.17,North,5,0.0,2.0,58,0.00,,,0.00,WeatherCatV1.11B39,2013-03-10 05:24:00,
2013-03-10 00:29:00,47.9,33.4,30.17,North,5,0.0,0.0,57,0.00,,,0.00,WeatherCatV1.11B39,2013-03-10 05:29:00,
2013-03-10 00:34:00,48.0,33.5,30.16,North,5,0.0,1.0,57,0.00,,,0.00,WeatherCatV1.11B39,2013-03-10 05:34:00,
2013-03-10 00:39:00,48.1,34.0,30.17,WNW,295,1.0,2.0,58,0.00,,,0.00,WeatherCatV1.11B39,2013-03-10 05:39:00,
2013-03-10 00:44:00,48.1,33.6,30.17,WNW,296,0.0,1.0,57,0.00,,,0.00,WeatherCatV1.11B39,2013-03-10 05:44:00,
2013-03-10 00:49:00,48.1,34.0,30.17,WNW,296,0.0,0.0,58,0.00,,,0.00,WeatherCatV1.11B39,2013-03-10 05:49:00,
2013-03-10 00:54:00,48.0,34.4,30.17,NW,321,5.0,5.0,59,0.00,,,0.00,WeatherCatV1.11B39,2013-03-10 05:54:00,
2013-03-10 00:59:00,47.9,33.8,30.17,NW,321,0.0,2.0,58,0.00,,,0.00,WeatherCatV1.11B39,2013-03-10 05:59:00,
2013-03-10 01:04:00,47.8,34.2,30.17,NW,321,1.0,2.0,59,0.00,,,0.00,WeatherCatV1.11B39,2013-03-10 06:04:00,
2013-03-10 01:09:00,47.9,33.8,30.17,NW,324,1.0,2.0,58,0.00,,,0.00,WeatherCatV1.11B39,2013-03-10 06:09:00,
2013-03-10 01:14:00,48.0,33.9,30.17,NW,323,1.0,1.0,58,0.00,,,0.00,WeatherCatV1.11B39,2013-03-10 06:14:00,
2013-03-10 01:19:00,48.1,33.2,30.16,NNW,344,6.0,6.0,56,0.00,,,0.00,WeatherCatV1.11B39,2013-03-10 06:19:00,
2013-03-10 01:24:00,48.5,33.5,30.17,NNW,346,0.0,1.0,56,0.00,,,0.00,WeatherCatV1.11B39,2013-03-10 06:24:00,
2013-03-10 01:29:00,48.7,32.8,30.16,NW,317,0.0,2.0,54,0.00,,,0.00,WeatherCatV1.11B39,2013-03-10 06:29:00,
2013-03-10 01:34:00,48.8,33.8,30.16,NW,317,1.0,4.0,56,0.00,,,0.00,WeatherCatV1.11B39,2013-03-10 06:34:00,
2013-03-10 01:39:00,48.7,33.7,30.16,NW,316,0.0,4.0,56,0.00,,,0.00,WeatherCatV1.11B39,2013-03-10 06:39:00,
2013-03-10 01:44:00,49.0,33.1,30.16,NNW,333,6.0,6.0,54,0.00,,,0.00,WeatherCatV1.11B39,2013-03-10 06:44:00,
2013-03-10 01:49:00,49.4,33.0,30.16,NW,310,2.0,4.0,53,0.00,,,0.00,WeatherCatV1.11B39,2013-03-10 06:49:00,
2013-03-10 01:54:00,49.5,32.6,30.16,NNW,343,1.0,4.0,52,0.00,,,0.00,WeatherCatV1.11B39,2013-03-10 06:54:00,
2013-03-10 01:59:00,49.7,32.8,30.16,NNW,343,1.0,1.0,52,0.00,,,0.00,WeatherCatV1.11B39,2013-03-10 06:59:00,
2013-03-10 03:02:00,49.7,33.3,30.16,NNW,343,0.0,1.0,53,0.00,,,0.00,WeatherCatV1.11B39,2013-03-10 07:02:00,
2013-03-10 03:07:00,49.8,33.4,30.15,NW,306,0.0,5.0,53,0.00,,,0.00,WeatherCatV1.11B39,2013-03-10 07:07:00,
2013-03-10 03:12:00,49.8,33.8,30.15,NW,308,0.0,6.0,54,0.00,,,0.00,WeatherCatV1.11B39,2013-03-10 07:12:00,
2013-03-10 03:17:00,49.7,32.8,30.15,ENE,65,2.0,2.0,52,0.00,,,0.00,WeatherCatV1.11B39,2013-03-10 07:17:00,
2013-03-10 03:22:00,49.5,33.6,30.14,ENE,65,0.0,0.0,54,0.00,,,0.00,WeatherCatV1.11B39,2013-03-10 07:22:00,
2013-03-10 03:27:00,49.4,32.5,30.14,NNE,15,0.0,2.0,52,0.00,,,0.00,WeatherCatV1.11B39,2013-03-10 07:27:00,
2013-03-10 03:32:00,49.5,33.6,30.14,North,5,0.0,5.0,54,0.00,,,0.00,WeatherCatV1.11B39,2013-03-10 07:32:00,
2013-03-10 03:37:00,49.5,33.1,30.14,North,5,0.0,0.0,53,0.00,,,0.00,WeatherCatV1.11B39,2013-03-10 07:37:00,
2013-03-10 03:42:00,49.4,33.0,30.13,North,5,1.0,2.0,53,0.00,,,0.00,WeatherCatV1.11B39,2013-03-10 07:42:00,
2013-03-10 03:47:00,49.2,32.8,30.13,North,5,1.0,3.0,53,0.00,,,0.00,WeatherCatV1.11B39,2013-03-10 07:47:00,
2013-03-10 03:52:00,49.2,32.8,30.12,NNE,20,3.0,5.0,53,0.00,,,0.00,WeatherCatV1.11B39,2013-03-10 07:52:00,
2013-03-10 03:57:00,49.3,33.4,30.12,North,5,1.0,4.0,54,0.00,,,0.00,WeatherCatV1.11B39,2013-03-10 07:57:00,
2013-03-10 04:02:00,49.2,32.3,30.12,North,5,3.0,3.0,52,0.00,,,0.00,WeatherCatV1.11B39,2013-03-10 08:02:00,
2013-03-10 04:06:00,49.3,32.9,30.12,North,5,1.0,3.0,53,0.00,,,0.00,WeatherCatV1.11B39,2013-03-10 08:06:00,
2013-03-10 04:11:00,49.4,32.5,30.13,North,5,1.0,2.0,52,0.00,,,0.00,WeatherCatV1.11B39,2013-03-10 08:11:00,
2013-03-10 04:16:00,49.4,32.5,30.13,North,5,0.0,0.0,52,0.00,,,0.00,WeatherCatV1.11B39,2013-03-10 08:16:00,
2013-03-10 04:21:00,49.3,33.4,30.13,North,5,0.0,0.0,54,0.00,,,0.00,WeatherCatV1.11B39,2013-03-10 08:21:00,
2013-03-10 04:26:00,49.0,32.6,30.13,North,5,0.0,0.0,53,0.00,,,0.00,WeatherCatV1.11B39,2013-03-10 08:26:00,
2013-03-10 04:31:00,48.7,33.3,30.13,North,5,0.0,0.0,55,0.00,,,0.00,WeatherCatV1.11B39,2013-03-10 08:31:00,
2013-03-10 04:36:00,48.5,33.1,30.11,North,5,0.0,1.0,55,0.00,,,0.00,WeatherCatV1.11B39,2013-03-10 08:36:00,
2013-03-10 04:41:00,48.4,33.4,30.11,North,11,6.0,6.0,56,0.00,,,0.00,WeatherCatV1.11B39,2013-03-10 08:41:00,
2013-03-10 04:46:00,48.6,32.7,30.10,NE,34,0.0,5.0,54,0.00,,,0.00,WeatherCatV1.11B39,2013-03-10 08:46:00,
2013-03-10 04:51:00,48.9,33.0,30.10,WNW,286,4.0,8.0,54,0.00,,,0.00,WeatherCatV1.11B39,2013-03-10 08:51:00,
2013-03-10 04:56:00,49.0,32.1,30.13,SSW,198,0.0,3.0,52,0.00,,,0.00,WeatherCatV1.11B39,2013-03-10 08:56:00,
2013-03-10 05:01:00,49.2,32.8,30.11,NNE,14,3.0,6.0,53,0.00,,,0.00,WeatherCatV1.11B39,2013-03-10 09:01:00,
2013-03-10 05:06:00,49.3,32.9,30.12,WSW,244,3.0,4.0,53,0.00,,,0.00,WeatherCatV1.11B39,2013-03-10 09:06:00,
2013-03-10 05:11:00,49.5,32.6,30.12,NNW,331,0.0,0.0,52,0.00,,,0.00,WeatherCatV1.11B39,2013-03-10 09:11:00,
2013-03-10 05:16:00,49.5,33.6,30.12,NNW,329,1.0,2.0,54,0.00,,,0.00,WeatherCatV1.11B39,2013-03-10 09:16:00,
2013-03-10 05:21:00,49.4,32.0,30.12,NNW,335,2.0,6.0,51,0.00,,,0.00,WeatherCatV1.11B39,2013-03-10 09:21:00,
2013-03-10 05:26:00,49.7,32.3,30.13,NE,51,2.0,4.0,51,0.00,,,0.00,WeatherCatV1.11B39,2013-03-10 09:26:00,
2013-03-10 05:31:00,49.8,32.4,30.13,NE,46,0.0,2.0,51,0.00,,,0.00,WeatherCatV1.11B39,2013-03-10 09:31:00,
2013-03-10 05:36:00,49.9,32.5,30.13,NE,46,0.0,2.0,51,0.00,,,0.00,WeatherCatV1.11B39,2013-03-10 09:36:00,
2013-03-10 05:41:00,49.9,32.5,30.14,NE,46,0.0,0.0,51,0.00,,,0.00,WeatherCatV1.11B39,2013-03-10 09:41:00,
2013-03-10 05:46:00,49.8,32.4,30.14,NE,46,0.0,0.0,51,0.00,,,0.00,WeatherCatV1.11B39,2013-03-10 09:46:00,
2013-03-10 05:51:00,49.8,32.4,30.14,NE,39,0.0,4.0,51,0.00,,,0.00,WeatherCatV1.11B39,2013-03-10 09:51:00,
2013-03-10 05:56:00,49.7,31.8,30.14,NNW,330,2.0,6.0,50,0.00,,,0.00,WeatherCatV1.11B39,2013-03-10 09:56:00,
2013-03-10 06:01:00,49.9,32.5,30.14,NNW,331,1.0,2.0,51,0.00,,,0.00,WeatherCatV1.11B39,2013-03-10 10:01:00,
2013-03-10 06:06:00,49.9,33.0,30.15,NE,34,2.0,3.0,52,0.00,,,0.00,WeatherCatV1.11B39,2013-03-10 10:06:00,
2013-03-10 06:11:00,49.8,32.9,30.14,NE,34,0.0,3.0,52,0.00,,,0.00,WeatherCatV1.11B39,2013-03-10 10:11:00,
2013-03-10 06:16:00,49.7,32.8,30.14,NE,34,2.0,3.0,52,0.00,,,0.00,WeatherCatV1.11B39,2013-03-10 10:16:00,
2013-03-10 06:21:00,49.6,33.2,30.15,East,97,2.0,4.0,53,0.00,,,0.00,WeatherCatV1.11B39,2013-03-10 10:21:00,
2013-03-10 06:26:00,49.5,32.6,30.15,East,96,0.0,4.0,52,0.00,,,0.00,WeatherCatV1.11B39,2013-03-10 10:26:00,
2013-03-10 06:31:00,49.4,32.5,30.15,East,96,0.0,0.0,52,0.00,,,0.00,WeatherCatV1.11B39,2013-03-10 10:31:00,
2013-03-10 06:36:00,49.4,33.0,30.16,East,96,0.0,0.0,53,0.00,,,0.00,WeatherCatV1.11B39,2013-03-10 10:36:00,
2013-03-10 06:41:00,49.3,33.4,30.16,East,96,0.0,0.0,54,0.00,,,0.00,WeatherCatV1.11B39,2013-03-10 10:41:00,
2013-03-10 06:46:00,49.2,32.8,30.16,North,0,2.0,3.0,53,0.00,,,0.00,WeatherCatV1.11B39,2013-03-10 10:46:00,
2013-03-10 06:51:00,49.2,32.8,30.15,North,0,0.0,2.0,53,0.00,,,0.00,WeatherCatV1.11B39,2013-03-10 10:51:00,
2013-03-10 06:56:00,49.2,32.8,30.16,NNW,342,1.0,4.0,53,0.00,,,0.00,WeatherCatV1.11B39,2013-03-10 10:56:00,
2013-03-10 07:01:00,49.0,33.1,30.15,NNW,343,5.0,5.0,54,0.00,,,0.00,WeatherCatV1.11B39,2013-03-10 11:01:00,
2013-03-10 07:06:00,49.0,33.1,30.15,NNW,332,0.0,0.0,54,0.00,,,0.00,WeatherCatV1.11B39,2013-03-10 11:06:00,
2013-03-10 07:11:00,49.0,33.1,30.15,NNW,329,0.0,1.0,54,0.00,,,0.00,WeatherCatV1.11B39,2013-03-10 11:11:00,
2013-03-10 07:16:00,49.0,33.1,30.15,NNW,329,0.0,0.0,54,0.00,,,0.00,WeatherCatV1.11B39,2013-03-10 11:16:00,
2013-03-10 07:21:00,49.0,32.6,30.15,NNW,329,0.0,0.0,53,0.00,,,0.00,WeatherCatV1.11B39,2013-03-10 11:21:00,
2013-03-10 07:26:00,49.0,32.6,30.16,NNW,329,0.0,0.0,53,0.00,,,0.00,WeatherCatV1.11B39,2013-03-10 11:26:00,
2013-03-10 07:31:00,48.8,32.4,30.16,NNW,329,0.0,0.0,53,0.00,,,0.00,WeatherCatV1.11B39,2013-03-10 11:31:00,
2013-03-10 07:36:00,48.7,32.3,30.16,NNW,329,0.0,0.0,53,0.00,,,0.00,WeatherCatV1.11B39,2013-03-10 11:36:00,
2013-03-10 07:41:00,48.5,32.6,30.16,NNW,329,0.0,0.0,54,0.00,,,0.00,WeatherCatV1.11B39,2013-03-10 11:41:00,
2013-03-10 07:46:00,48.3,32.4,30.17,NNW,329,0.0,0.0,54,0.00,,,0.00,WeatherCatV1.11B39,2013-03-10 11:46:00,
2013-03-10 07:51:00,48.2,32.8,30.17,NNW,329,0.0,1.0,55,0.00,,,0.00,WeatherCatV1.11B39,2013-03-10 11:51:00,
2013-03-10 07:56:00,48.1,32.2,30.17,NNW,329,0.0,1.0,54,0.00,,,0.00,WeatherCatV1.11B39,2013-03-10 11:56:00,
2013-03-10 08:01:00,48.1,33.6,30.18,NNW,329,1.0,2.0,57,0.00,,,0.00,WeatherCatV1.11B39,2013-03-10 12:01:00,
2013-03-10 08:06:00,47.8,32.4,30.18,NNW,329,1.0,2.0,55,0.00,,,0.00,WeatherCatV1.11B39,2013-03-10 12:06:00,
2013-03-10 08:11:00,47.8,32.0,30.18,NNW,329,0.0,0.0,54,0.00,,,0.00,WeatherCatV1.11B39,2013-03-10 12:11:00,
2013-03-10 08:16:00,47.9,32.1,30.18,NNW,329,0.0,0.0,54,0.00,,,0.00,WeatherCatV1.11B39,2013-03-10 12:16:00,
2013-03-10 08:21:00,48.1,32.7,30.18,NNW,329,0.0,1.0,55,0.00,,,0.00,WeatherCatV1.11B39,2013-03-10 12:21:00,
2013-03-10 08:26:00,48.0,32.2,30.18,NNW,329,0.0,1.0,54,0.00,,,0.00,WeatherCatV1.11B39,2013-03-10 12:26:00,
2013-03-10 08:31:00,48.0,33.1,30.18,North,355,0.0,2.0,56,0.00,,,0.00,WeatherCatV1.11B39,2013-03-10 12:31:00,
2013-03-10 08:36:00,47.9,32.5,30.18,North,355,1.0,1.0,55,0.00,,,0.00,WeatherCatV1.11B39,2013-03-10 12:36:00,
2013-03-10 08:41:00,47.9,33.0,30.18,North,355,0.0,1.0,56,0.00,,,0.00,WeatherCatV1.11B39,2013-03-10 12:41:00,
2013-03-10 08:46:00,47.9,33.0,30.18,North,355,0.0,0.0,56,0.00,,,0.00,WeatherCatV1.11B39,2013-03-10 12:46:00,
2013-03-10 08:51:00,48.1,33.2,30.18,North,355,0.0,1.0,56,0.00,,,0.00,WeatherCatV1.11B39,2013-03-10 12:51:00,
2013-03-10 08:56:00,48.3,33.3,30.18,North,355,0.0,0.0,56,0.00,,,0.00,WeatherCatV1.11B39,2013-03-10 12:56:00,
2013-03-10 09:01:00,48.8,33.4,30.17,North,355,0.0,0.0,55,0.00,,,0.00,WeatherCatV1.11B39,2013-03-10 13:01:00,
2013-03-10 09:06:00,49.2,34.2,30.18,North,355,2.0,2.0,56,0.00,,,0.00,WeatherCatV1.11B39,2013-03-10 13:06:00,
2013-03-10 09:10:00,49.8,33.8,30.18,NNE,30,4.0,5.0,54,0.00,,,0.00,WeatherCatV1.11B39,2013-03-10 13:10:00,
2013-03-10 09:15:00,50.6,34.6,30.18,NNE,25,0.0,1.0,54,0.00,,,0.00,WeatherCatV1.11B39,2013-03-10 13:15:00,
2013-03-10 09:20:00,51.2,34.2,30.17,NW,310,6.0,8.0,52,0.00,,,0.00,WeatherCatV1.11B39,2013-03-10 13:20:00,
2013-03-10 09:25:00,51.4,34.8,30.17,NW,319,1.0,4.0,53,0.00,,,0.00,WeatherCatV1.11B39,2013-03-10 13:25:00,
2013-03-10 09:30:00,51.7,34.2,30.17,NNW,346,2.0,5.0,51,0.00,,,0.00,WeatherCatV1.11B39,2013-03-10 13:30:00,
2013-03-10 09:35:00,52.0,33.9,30.17,NNE,21,5.0,9.0,50,0.00,,,0.00,WeatherCatV1.11B39,2013-03-10 13:35:00,
2013-03-10 09:40:00,52.2,34.6,30.17,NNE,28,3.0,6.0,51,0.00,,,0.00,WeatherCatV1.11B39,2013-03-10 13:40:00,
2013-03-10 09:45:00,52.4,34.8,30.17,NE,34,1.0,8.0,51,0.00,,,0.00,WeatherCatV1.11B39,2013-03-10 13:45:00,
2013-03-10 09:50:00,52.8,35.2,30.17,NE,54,3.0,8.0,51,0.00,,,0.00,WeatherCatV1.11B39,2013-03-10 13:50:00,
2013-03-10 09:51:00,52.8,35.2,30.17,ENE,62,2.0,8.0,51,0.00,,,0.00,WeatherCatV1.11B39,2013-03-10 13:51:00,
2013-03-10 09:56:00,53.2,35.5,30.17,NE,53,2.0,4.0,51,0.00,,,0.00,WeatherCatV1.11B39,2013-03-10 13:56:00,
2013-03-10 10:01:00,53.5,35.3,30.17,North,0,0.0,6.0,50,0.00,,,0.00,WeatherCatV1.11B39,2013-03-10 14:01:00,
2013-03-10 10:06:00,53.7,35.0,30.17,NE,45,3.0,10.0,49,0.00,,,0.00,WeatherCatV1.11B39,2013-03-10 14:06:00,
2013-03-10 10:11:00,53.9,35.2,30.17,NE,35,4.0,10.0,49,0.00,,,0.00,WeatherCatV1.11B39,2013-03-10 14:11:00,
2013-03-10 10:16:00,54.1,35.9,30.17,NNE,12,4.0,5.0,50,0.00,,,0.00,WeatherCatV1.11B39,2013-03-10 14:16:00,
2013-03-10 10:21:00,54.4,35.1,30.17,NE,38,10.0,13.0,48,0.00,,,0.00,WeatherCatV1.11B39,2013-03-10 14:21:00,
2013-03-10 10:26:00,54.3,35.0,30.17,ESE,103,2.0,10.0,48,0.00,,,0.00,WeatherCatV1.11B39,2013-03-10 14:26:00,
2013-03-10 10:31:00,54.3,35.0,30.17,NNE,18,8.0,8.0,48,0.00,,,0.00,WeatherCatV1.11B39,2013-03-10 14:31:00,
2013-03-10 10:36:00,54.5,35.7,30.17,North,0,5.0,8.0,49,0.00,,,0.00,WeatherCatV1.11B39,2013-03-10 14:36:00,
2013-03-10 10:41:00,55.0,35.1,30.16,North,5,6.0,10.0,47,0.00,,,0.00,WeatherCatV1.11B39,2013-03-10 14:41:00,
2013-03-10 10:46:00,55.1,35.2,30.16,East,88,4.0,6.0,47,0.00,,,0.00,WeatherCatV1.11B39,2013-03-10 14:46:00,
2013-03-10 10:51:00,55.1,35.8,30.16,North,355,10.0,10.0,48,0.00,,,0.00,WeatherCatV1.11B39,2013-03-10 14:51:00,
2013-03-10 10:56:00,55.3,35.9,30.15,NE,49,1.0,6.0,48,0.00,,,0.00,WeatherCatV1.11B39,2013-03-10 14:56:00,
2013-03-10 11:01:00,55.6,36.2,30.15,NNE,22,5.0,7.0,48,0.00,,,0.00,WeatherCatV1.11B39,2013-03-10 15:01:00,
2013-03-10 11:02:00,55.7,36.3,30.15,ENE,59,7.0,10.0,48,0.00,,,0.00,WeatherCatV1.11B39,2013-03-10 15:02:00,
2013-03-10 11:07:00,56.1,36.1,30.15,NE,43,3.0,8.0,47,0.00,,,0.00,WeatherCatV1.11B39,2013-03-10 15:07:00,
2013-03-10 11:12:00,56.4,35.9,30.14,North,355,5.0,13.0,46,0.00,,,0.00,WeatherCatV1.11B39,2013-03-10 15:12:00,
2013-03-10 11:17:00,56.8,36.8,30.14,NNW,333,6.0,10.0,47,0.00,,,0.00,WeatherCatV1.11B39,2013-03-10 15:17:00,
2013-03-10 11:22:00,57.1,36.5,30.14,East,80,1.0,5.0,46,0.00,,,0.00,WeatherCatV1.11B39,2013-03-10 15:22:00,
2013-03-10 11:27:00,57.3,37.2,30.14,NNE,27,1.0,5.0,47,0.00,,,0.00,WeatherCatV1.11B39,2013-03-10 15:27:00,
2013-03-10 11:32:00,57.8,37.2,30.14,NNE,33,3.0,7.0,46,0.00,,,0.00,WeatherCatV1.11B39,2013-03-10 15:32:00,
2013-03-10 11:37:00,58.4,36.6,30.14,NNE,26,6.0,9.0,44,0.00,,,0.00,WeatherCatV1.11B39,2013-03-10 15:37:00,
2013-03-10 11:42:00,58.6,37.3,30.14,North,355,9.0,10.0,45,0.00,,,0.00,WeatherCatV1.11B39,2013-03-10 15:42:00,
2013-03-10 11:47:00,58.7,37.4,30.15,NNE,19,1.0,6.0,45,0.00,,,0.00,WeatherCatV1.11B39,2013-03-10 15:47:00,
2013-03-10 11:51:00,58.8,36.4,30.15,NNE,19,6.0,10.0,43,0.00,,,0.00,WeatherCatV1.11B39,2013-03-10 15:51:00,
2013-03-10 11:56:00,58.9,36.4,30.15,East,79,7.0,10.0,43,0.00,,,0.00,WeatherCatV1.11B39,2013-03-10 15:56:00,
2013-03-10 12:01:00,59.1,36.0,30.15,ENE,76,4.0,12.0,42,0.00,,,0.00,WeatherCatV1.11B39,2013-03-10 16:01:00,
2013-03-10 12:06:00,59.0,34.7,30.14,ENE,78,6.0,13.0,40,0.00,,,0.00,WeatherCatV1.11B39,2013-03-10 16:06:00,
2013-03-10 12:11:00,59.0,35.3,30.14,East,91,13.0,13.0,41,0.00,,,0.00,WeatherCatV1.11B39,2013-03-10 16:11:00,
2013-03-10 12:16:00,59.1,35.4,30.14,ENE,73,3.0,8.0,41,0.00,,,0.00,WeatherCatV1.11B39,2013-03-10 16:16:00,
2013-03-10 12:21:00,59.5,35.8,30.14,ENE,61,4.0,10.0,41,0.00,,,0.00,WeatherCatV1.11B39,2013-03-10 16:21:00,
2013-03-10 12:26:00,59.4,35.7,30.14,ENE,76,7.0,15.0,41,0.00,,,0.00,WeatherCatV1.11B39,2013-03-10 16:26:00,
2013-03-10 12:31:00,59.5,36.4,30.14,East,88,4.0,6.0,42,0.00,,,0.00,WeatherCatV1.11B39,2013-03-10 16:31:00,
2013-03-10 12:36:00,60.1,35.1,30.14,NE,53,7.0,18.0,39,0.00,,,0.00,WeatherCatV1.11B39,2013-03-10 16:36:00,
2013-03-10 12:41:00,59.8,34.8,30.14,East,79,6.0,11.0,39,0.00,,,0.00,WeatherCatV1.11B39,2013-03-10 16:41:00,
2013-03-10 12:46:00,59.7,35.3,30.14,East,91,12.0,18.0,40,0.00,,,0.00,WeatherCatV1.11B39,2013-03-10 16:46:00,
2013-03-10 12:51:00,60.2,35.2,30.13,ENE,63,7.0,17.0,39,0.00,,,0.00,WeatherCatV1.11B39,2013-03-10 16:51:00,
2013-03-10 12:56:00,60.4,35.3,30.13,East,89,7.0,8.0,39,0.00,,,0.00,WeatherCatV1.11B39,2013-03-10 16:56:00,
2013-03-10 13:01:00,60.4,34.0,30.12,East,81,7.0,16.0,37,0.00,,,0.00,WeatherCatV1.11B39,2013-03-10 17:01:00,
2013-03-10 13:06:00,60.5,34.8,30.12,NE,53,3.0,8.0,38,0.00,,,0.00,WeatherCatV1.11B39,2013-03-10 17:06:00,
2013-03-10 13:11:00,60.9,34.5,30.12,East,95,8.0,14.0,37,0.00,,,0.00,WeatherCatV1.11B39,2013-03-10 17:11:00,
2013-03-10 13:16:00,61.0,34.5,30.13,NE,36,10.0,19.0,37,0.00,,,0.00,WeatherCatV1.11B39,2013-03-10 17:16:00,
2013-03-10 13:21:00,61.2,35.4,30.13,NNE,12,2.0,11.0,38,0.00,,,0.00,WeatherCatV1.11B39,2013-03-10 17:21:00,
2013-03-10 13:26:00,61.4,34.9,30.12,NE,36,6.0,12.0,37,0.00,,,0.00,WeatherCatV1.11B39,2013-03-10 17:26:00,
2013-03-10 13:31:00,61.6,35.1,30.12,North,5,3.0,12.0,37,0.00,,,0.00,WeatherCatV1.11B39,2013-03-10 17:31:00,
2013-03-10 13:36:00,61.7,35.2,30.12,ENE,67,4.0,7.0,37,0.00,,,0.00,WeatherCatV1.11B39,2013-03-10 17:36:00,
2013-03-10 13:41:00,61.6,34.4,30.12,ENE,62,4.0,12.0,36,0.00,,,0.00,WeatherCatV1.11B39,2013-03-10 17:41:00,
2013-03-10 13:46:00,61.7,35.8,30.12,ENE,59,3.0,6.0,38,0.00,,,0.00,WeatherCatV1.11B39,2013-03-10 17:46:00,
2013-03-10 13:51:00,61.8,35.9,30.12,North,5,3.0,10.0,38,0.00,,,0.00,WeatherCatV1.11B39,2013-03-10 17:51:00,
2013-03-10 13:56:00,61.9,35.3,30.11,ENE,73,3.0,8.0,37,0.00,,,0.00,WeatherCatV1.11B39,2013-03-10 17:56:00,
2013-03-10 14:01:00,61.7,34.5,30.11,ENE,74,5.0,8.0,36,0.00,,,0.00,WeatherCatV1.11B39,2013-03-10 18:01:00,
2013-03-10 14:06:00,61.9,35.3,30.10,ENE,69,7.0,11.0,37,0.00,,,0.00,WeatherCatV1.11B39,2013-03-10 18:06:00,
2013-03-10 14:11:00,62.1,35.5,30.10,ENE,62,6.0,10.0,37,0.00,,,0.00,WeatherCatV1.11B39,2013-03-10 18:11:00,
2013-03-10 14:16:00,62.1,35.5,30.11,NNE,30,2.0,10.0,37,0.00,,,0.00,WeatherCatV1.11B39,2013-03-10 18:16:00,
2013-03-10 14:21:00,62.0,36.1,30.11,ENE,68,6.0,13.0,38,0.00,,,0.00,WeatherCatV1.11B39,2013-03-10 18:21:00,
2013-03-10 14:26:00,61.9,36.7,30.10,North,355,7.0,8.0,39,0.00,,,0.00,WeatherCatV1.11B39,2013-03-10 18:26:00,
2013-03-10 14:31:00,61.9,36.7,30.10,ENE,63,8.0,8.0,39,0.00,,,0.00,WeatherCatV1.11B39,2013-03-10 18:31:00,
2013-03-10 14:36:00,61.9,34.7,30.10,NE,48,2.0,9.0,36,0.00,,,0.00,WeatherCatV1.11B39,2013-03-10 18:36:00,
2013-03-10 14:41:00,61.8,34.6,30.09,East,93,8.0,12.0,36,0.00,,,0.00,WeatherCatV1.11B39,2013-03-10 18:41:00,
2013-03-10 14:46:00,61.7,35.8,30.09,ESE,107,4.0,9.0,38,0.00,,,0.00,WeatherCatV1.11B39,2013-03-10 18:46:00,
2013-03-10 14:51:00,61.7,36.5,30.09,NNE,19,3.0,5.0,39,0.00,,,0.00,WeatherCatV1.11B39,2013-03-10 18:51:00,
2013-03-10 14:56:00,62.0,36.1,30.09,NNE,33,7.0,9.0,38,0.00,,,0.00,WeatherCatV1.11B39,2013-03-10 18:56:00,
2013-03-10 15:01:00,62.2,35.6,30.08,ENE,67,8.0,12.0,37,0.00,,,0.00,WeatherCatV1.11B39,2013-03-10 19:01:00,
2013-03-10 15:06:00,62.1,35.5,30.08,ESE,113,11.0,13.0,37,0.00,,,0.00,WeatherCatV1.11B39,2013-03-10 19:06:00,
2013-03-10 15:11:00,62.0,36.1,30.08,ENE,73,6.0,7.0,38,0.00,,,0.00,WeatherCatV1.11B39,2013-03-10 19:11:00,
2013-03-10 15:16:00,62.3,37.0,30.08,ENE,69,6.0,10.0,39,0.00,,,0.00,WeatherCatV1.11B39,2013-03-10 19:16:00,
2013-03-10 15:21:00,62.5,36.5,30.08,NNE,22,8.0,13.0,38,0.00,,,0.00,WeatherCatV1.11B39,2013-03-10 19:21:00,
2013-03-10 15:26:00,62.6,36.0,30.07,NE,36,3.0,13.0,37,0.00,,,0.00,WeatherCatV1.11B39,2013-03-10 19:26:00,
2013-03-10 15:31:00,62.6,36.6,30.07,East,101,4.0,8.0,38,0.00,,,0.00,WeatherCatV1.11B39,2013-03-10 19:31:00,
2013-03-10 15:36:00,62.8,36.1,30.07,ENE,68,5.0,12.0,37,0.00,,,0.00,WeatherCatV1.11B39,2013-03-10 19:36:00,
2013-03-10 15:41:00,63.2,36.5,30.07,ENE,73,4.0,9.0,37,0.00,,,0.00,WeatherCatV1.11B39,2013-03-10 19:41:00,
2013-03-10 15:46:00,63.6,35.4,30.06,NNE,25,5.0,18.0,35,0.00,,,0.00,WeatherCatV1.11B39,2013-03-10 19:46:00,
2013-03-10 15:51:00,63.9,35.7,30.07,East,82,3.0,8.0,35,0.00,,,0.00,WeatherCatV1.11B39,2013-03-10 19:51:00,
2013-03-10 15:56:00,64.1,35.9,30.07,NE,55,5.0,8.0,35,0.00,,,0.00,WeatherCatV1.11B39,2013-03-10 19:56:00,
2013-03-10 16:01:00,64.2,36.0,30.06,East,80,7.0,9.0,35,0.00,,,0.00,WeatherCatV1.11B39,2013-03-10 20:01:00,
2013-03-10 16:06:00,64.5,36.2,30.06,NNE,30,1.0,9.0,35,0.00,,,0.00,WeatherCatV1.11B39,2013-03-10 20:06:00,
2013-03-10 16:11:00,64.6,35.6,30.05,East,84,8.0,16.0,34,0.00,,,0.00,WeatherCatV1.11B39,2013-03-10 20:11:00,
2013-03-10 16:16:00,64.5,35.5,30.06,East,90,2.0,12.0,34,0.00,,,0.00,WeatherCatV1.11B39,2013-03-10 20:16:00,
2013-03-10 16:21:00,64.6,35.6,30.05,East,80,4.0,8.0,34,0.00,,,0.00,WeatherCatV1.11B39,2013-03-10 20:21:00,
2013-03-10 16:26:00,64.6,35.6,30.05,East,85,10.0,10.0,34,0.00,,,0.00,WeatherCatV1.11B39,2013-03-10 20:26:00,
2013-03-10 16:31:00,64.8,35.8,30.05,ESE,110,8.0,9.0,34,0.00,,,0.00,WeatherCatV1.11B39,2013-03-10 20:31:00,
2013-03-10 16:36:00,64.4,34.7,30.05,East,80,5.0,10.0,33,0.00,,,0.00,WeatherCatV1.11B39,2013-03-10 20:36:00,
2013-03-10 16:41:00,64.0,35.1,30.05,NNW,342,8.0,9.0,34,0.00,,,0.00,WeatherCatV1.11B39,2013-03-10 20:41:00,
2013-03-10 16:46:00,63.9,34.2,30.05,NE,50,10.0,13.0,33,0.00,,,0.00,WeatherCatV1.11B39,2013-03-10 20:46:00,
2013-03-10 16:50:00,63.7,34.8,30.05,East,96,12.0,12.0,34,0.00,,,0.00,WeatherCatV1.11B39,2013-03-10 20:50:00,
2013-03-10 16:55:00,63.4,36.7,30.06,ENE,66,4.0,5.0,37,0.00,,,0.00,WeatherCatV1.11B39,2013-03-10 20:55:00,
2013-03-10 17:00:00,63.3,34.5,30.06,NE,44,6.0,11.0,34,0.00,,,0.00,WeatherCatV1.11B39,2013-03-10 21:00:00,
2013-03-10 17:05:00,63.2,35.1,30.05,ENE,77,3.0,6.0,35,0.00,,,0.00,WeatherCatV1.11B39,2013-03-10 21:05:00,
2013-03-10 17:10:00,63.1,35.0,30.05,NNE,27,4.0,11.0,35,0.00,,,0.00,WeatherCatV1.11B39,2013-03-10 21:10:00,
2013-03-10 17:15:00,62.9,35.5,30.05,ENE,73,5.0,11.0,36,0.00,,,0.00,WeatherCatV1.11B39,2013-03-10 21:15:00,
2013-03-10 17:20:00,62.8,36.1,30.05,ENE,78,2.0,11.0,37,0.00,,,0.00,WeatherCatV1.11B39,2013-03-10 21:20:00,
2013-03-10 17:25:00,62.7,36.0,30.05,NE,55,2.0,6.0,37,0.00,,,0.00,WeatherCatV1.11B39,2013-03-10 21:25:00,
2013-03-10 17:30:00,62.6,36.0,30.05,ENE,57,3.0,5.0,37,0.00,,,0.00,WeatherCatV1.11B39,2013-03-10 21:30:00,
2013-03-10 17:35:00,62.6,36.6,30.05,NE,56,5.0,8.0,38,0.00,,,0.00,WeatherCatV1.11B39,2013-03-10 21:35:00,
2013-03-10 17:40:00,62.7,36.7,30.05,NNE,32,6.0,10.0,38,0.00,,,0.00,WeatherCatV1.11B39,2013-03-10 21:40:00,
2013-03-10 17:45:00,62.7,36.7,30.05,NNE,27,3.0,5.0,38,0.00,,,0.00,WeatherCatV1.11B39,2013-03-10 21:45:00,
2013-03-10 17:50:00,62.7,36.7,30.05,NE,36,1.0,5.0,38,0.00,,,0.00,WeatherCatV1.11B39,2013-03-10 21:50:00,
2013-03-10 17:55:00,62.7,36.7,30.05,NE,43,5.0,7.0,38,0.00,,,0.00,WeatherCatV1.11B39,2013-03-10 21:55:00,
2013-03-10 18:00:00,62.6,36.6,30.04,NE,41,5.0,12.0,38,0.00,,,0.00,WeatherCatV1.11B39,2013-03-10 22:00:00,
2013-03-10 18:05:00,62.6,36.6,30.04,NNE,15,4.0,6.0,38,0.00,,,0.00,WeatherCatV1.11B39,2013-03-10 22:05:00,
2013-03-10 18:10:00,62.5,37.2,30.04,NE,35,6.0,7.0,39,0.00,,,0.00,WeatherCatV1.11B39,2013-03-10 22:10:00,
2013-03-10 18:15:00,62.4,37.8,30.05,NE,50,3.0,6.0,40,0.00,,,0.00,WeatherCatV1.11B39,2013-03-10 22:15:00,
2013-03-10 18:20:00,62.4,37.8,30.05,NNE,12,6.0,6.0,40,0.00,,,0.00,WeatherCatV1.11B39,2013-03-10 22:20:00,
2013-03-10 18:25:00,62.3,37.7,30.05,NE,47,5.0,9.0,40,0.00,,,0.00,WeatherCatV1.11B39,2013-03-10 22:25:00,
2013-03-10 18:30:00,62.3,37.7,30.04,NE,51,3.0,6.0,40,0.00,,,0.00,WeatherCatV1.11B39,2013-03-10 22:30:00,
2013-03-10 18:35:00,62.3,37.7,30.04,NE,55,3.0,7.0,40,0.00,,,0.00,WeatherCatV1.11B39,2013-03-10 22:35:00,
2013-03-10 18:40:00,62.4,37.8,30.04,NNE,13,5.0,7.0,40,0.00,,,0.00,WeatherCatV1.11B39,2013-03-10 22:40:00,
2013-03-10 18:45:00,62.3,37.7,30.04,NNE,15,5.0,5.0,40,0.00,,,0.00,WeatherCatV1.11B39,2013-03-10 22:45:00,
2013-03-10 18:50:00,62.4,38.4,30.04,NE,44,3.0,3.0,41,0.00,,,0.00,WeatherCatV1.11B39,2013-03-10 22:50:00,
2013-03-10 18:55:00,62.4,37.8,30.04,NNE,24,4.0,8.0,40,0.00,,,0.00,WeatherCatV1.11B39,2013-03-10 22:55:00,
2013-03-10 19:00:00,62.4,38.4,30.04,NNE,16,0.0,5.0,41,0.00,,,0.00,WeatherCatV1.11B39,2013-03-10 23:00:00,
2013-03-10 19:05:00,62.3,38.3,30.04,NNE,29,3.0,5.0,41,0.00,,,0.00,WeatherCatV1.11B39,2013-03-10 23:05:00,
2013-03-10 19:10:00,62.2,38.2,30.04,NNE,31,1.0,5.0,41,0.00,,,0.00,WeatherCatV1.11B39,2013-03-10 23:10:00,
2013-03-10 19:15:00,61.9,37.9,30.03,NE,42,6.0,10.0,41,0.00,,,0.00,WeatherCatV1.11B39,2013-03-10 23:15:00,
2013-03-10 19:20:00,61.6,37.7,30.04,ENE,60,6.0,7.0,41,0.00,,,0.00,WeatherCatV1.11B39,2013-03-10 23:20:00,
2013-03-10 19:25:00,61.4,38.1,30.04,North,355,13.0,13.0,42,0.00,,,0.00,WeatherCatV1.11B39,2013-03-10 23:25:00,
2013-03-10 19:30:00,61.3,38.0,30.04,NNW,344,6.0,10.0,42,0.00,,,0.00,WeatherCatV1.11B39,2013-03-10 23:30:00,
2013-03-10 19:35:00,61.1,37.8,30.03,North,5,3.0,8.0,42,0.00,,,0.00,WeatherCatV1.11B39,2013-03-10 23:35:00,
2013-03-10 19:40:00,60.9,38.3,30.03,NNE,20,0.0,2.0,43,0.00,,,0.00,WeatherCatV1.11B39,2013-03-10 23:40:00,
2013-03-10 19:45:00,60.7,38.1,30.03,NNE,23,1.0,2.0,43,0.00,,,0.00,WeatherCatV1.11B39,2013-03-10 23:45:00,
2013-03-10 19:50:00,60.4,37.8,30.03,NNE,32,3.0,6.0,43,0.00,,,0.00,WeatherCatV1.11B39,2013-03-10 23:50:00,
2013-03-10 19:55:00,60.2,38.2,30.04,North,5,2.0,3.0,44,0.00,,,0.00,WeatherCatV1.11B39,2013-03-10 23:55:00,
2013-03-10 20:00:00,60.0,38.0,30.03,NNE,26,2.0,4.0,44,0.00,,,0.00,WeatherCatV1.11B39,2013-03-11 00:00:00,
2013-03-10 20:05:00,59.7,37.8,30.03,NE,36,3.0,4.0,44,0.00,,,0.00,WeatherCatV1.11B39,2013-03-11 00:05:00,
2013-03-10 20:10:00,59.4,38.1,30.03,NNW,336,7.0,7.0,45,0.00,,,0.00,WeatherCatV1.11B39,2013-03-11 00:10:00,
2013-03-10 20:15:00,59.2,37.9,30.03,NNE,32,1.0,2.0,45,0.00,,,0.00,WeatherCatV1.11B39,2013-03-11 00:15:00,
2013-03-10 20:20:00,59.0,37.7,30.03,NE,53,4.0,4.0,45,0.00,,,0.00,WeatherCatV1.11B39,2013-03-11 00:20:00,
2013-03-10 20:25:00,58.7,37.4,30.03,North,11,3.0,6.0,45,0.00,,,0.00,WeatherCatV1.11B39,2013-03-11 00:25:00,
2013-03-10 20:30:00,58.4,37.7,30.03,North,5,0.0,1.0,46,0.00,,,0.00,WeatherCatV1.11B39,2013-03-11 00:30:00,
2013-03-10 20:35:00,58.3,37.6,30.03,WNW,282,4.0,7.0,46,0.00,,,0.00,WeatherCatV1.11B39,2013-03-11 00:35:00,
2013-03-10 20:40:00,58.1,37.4,30.03,NE,49,2.0,3.0,46,0.00,,,0.00,WeatherCatV1.11B39,2013-03-11 00:40:00,
2013-03-10 20:45:00,57.9,37.2,30.03,NNE,19,0.0,4.0,46,0.00,,,0.00,WeatherCatV1.11B39,2013-03-11 00:45:00,
2013-03-10 20:50:00,57.8,37.2,30.03,NW,316,2.0,5.0,46,0.00,,,0.00,WeatherCatV1.11B39,2013-03-11 00:50:00,
2013-03-10 20:55:00,57.7,37.1,30.03,NW,311,4.0,5.0,46,0.00,,,0.00,WeatherCatV1.11B39,2013-03-11 00:55:00,
2013-03-10 21:00:00,57.7,37.1,30.04,NW,310,5.0,9.0,46,0.00,,,0.00,WeatherCatV1.11B39,2013-03-11 01:00:00,
2013-03-10 21:05:00,57.7,37.1,30.03,NW,326,5.0,6.0,46,0.00,,,0.00,WeatherCatV1.11B39,2013-03-11 01:05:00,
2013-03-10 21:10:00,57.5,36.9,30.03,NNW,329,1.0,4.0,46,0.00,,,0.00,WeatherCatV1.11B39,2013-03-11 01:10:00,
2013-03-10 21:15:00,57.1,37.1,30.03,NNW,328,6.0,6.0,47,0.00,,,0.00,WeatherCatV1.11B39,2013-03-11 01:15:00,
2013-03-10 21:20:00,56.9,36.9,30.03,NE,55,3.0,5.0,47,0.00,,,0.00,WeatherCatV1.11B39,2013-03-11 01:20:00,
2013-03-10 21:25:00,56.8,36.8,30.03,NNE,19,2.0,7.0,47,0.00,,,0.00,WeatherCatV1.11B39,2013-03-11 01:25:00,
2013-03-10 21:30:00,56.7,37.2,30.03,NNE,14,0.0,4.0,48,0.00,,,0.00,WeatherCatV1.11B39,2013-03-11 01:30:00,
2013-03-10 21:35:00,56.5,37.0,30.03,NNW,339,4.0,6.0,48,0.00,,,0.00,WeatherCatV1.11B39,2013-03-11 01:35:00,
2013-03-10 21:40:00,56.6,37.7,30.03,NNW,347,4.0,7.0,49,0.00,,,0.00,WeatherCatV1.11B39,2013-03-11 01:40:00,
2013-03-10 21:45:00,56.5,37.6,30.04,NNW,331,5.0,6.0,49,0.00,,,0.00,WeatherCatV1.11B39,2013-03-11 01:45:00,
2013-03-10 21:50:00,56.6,37.7,30.04,NNE,28,3.0,6.0,49,0.00,,,0.00,WeatherCatV1.11B39,2013-03-11 01:50:00,
2013-03-10 21:55:00,56.6,38.2,30.04,NE,39,3.0,10.0,50,0.00,,,0.00,WeatherCatV1.11B39,2013-03-11 01:55:00,
2013-03-10 22:00:00,56.7,38.3,30.04,NW,308,1.0,5.0,50,0.00,,,0.00,WeatherCatV1.11B39,2013-03-11 02:00:00,
2013-03-10 22:04:00,56.6,38.2,30.04,NW,322,6.0,7.0,50,0.00,,,0.00,WeatherCatV1.11B39,2013-03-11 02:04:00,
2013-03-10 22:09:00,56.6,38.7,30.05,NW,312,2.0,5.0,51,0.00,,,0.00,WeatherCatV1.11B39,2013-03-11 02:09:00,
2013-03-10 22:14:00,56.6,38.7,30.05,NNW,347,4.0,7.0,51,0.00,,,0.00,WeatherCatV1.11B39,2013-03-11 02:14:00,
2013-03-10 22:19:00,56.6,38.7,30.05,NNW,333,7.0,8.0,51,0.00,,,0.00,WeatherCatV1.11B39,2013-03-11 02:19:00,
2013-03-10 22:24:00,56.6,39.2,30.05,NNW,344,4.0,7.0,52,0.00,,,0.00,WeatherCatV1.11B39,2013-03-11 02:24:00,
2013-03-10 22:29:00,56.7,39.3,30.04,NNE,18,4.0,9.0,52,0.00,,,0.00,WeatherCatV1.11B39,2013-03-11 02:29:00,
2013-03-10 22:34:00,56.6,39.2,30.04,NE,34,2.0,3.0,52,0.00,,,0.00,WeatherCatV1.11B39,2013-03-11 02:34:00,
2013-03-10 22:39:00,56.6,39.7,30.05,NNW,336,7.0,7.0,53,0.00,,,0.00,WeatherCatV1.11B39,2013-03-11 02:39:00,
2013-03-10 22:44:00,56.7,39.8,30.04,NW,306,4.0,6.0,53,0.00,,,0.00,WeatherCatV1.11B39,2013-03-11 02:44:00,
2013-03-10 22:49:00,56.6,39.7,30.05,NW,319,6.0,12.0,53,0.00,,,0.00,WeatherCatV1.11B39,2013-03-11 02:49:00,
2013-03-10 22:54:00,56.6,39.7,30.04,NNE,26,2.0,6.0,53,0.00,,,0.00,WeatherCatV1.11B39,2013-03-11 02:54:00,
2013-03-10 22:59:00,56.5,40.1,30.04,NNW,333,0.0,2.0,54,0.00,,,0.00,WeatherCatV1.11B39,2013-03-11 02:59:00,
2013-03-10 23:04:00,56.5,40.1,30.04,North,351,2.0,8.0,54,0.00,,,0.00,WeatherCatV1.11B39,2013-03-11 03:04:00,
2013-03-10 23:09:00,56.6,40.1,30.04,NE,34,0.0,4.0,54,0.00,,,0.00,WeatherCatV1.11B39,2013-03-11 03:09:00,
2013-03-10 23:14:00,56.5,40.5,30.04,North,0,5.0,5.0,55,0.00,,,0.00,WeatherCatV1.11B39,2013-03-11 03:14:00,
2013-03-10 23:19:00,56.5,40.5,30.05,NNE,31,5.0,6.0,55,0.00,,,0.00,WeatherCatV1.11B39,2013-03-11 03:19:00,
2013-03-10 23:24:00,56.5,41.0,30.04,North,11,6.0,7.0,56,0.00,,,0.00,WeatherCatV1.11B39,2013-03-11 03:24:00,
2013-03-10 23:29:00,56.6,41.1,30.04,NW,320,4.0,5.0,56,0.00,,,0.00,WeatherCatV1.11B39,2013-03-11 03:29:00,
2013-03-10 23:34:00,56.6,41.1,30.04,NNE,20,3.0,9.0,56,0.00,,,0.00,WeatherCatV1.11B39,2013-03-11 03:34:00,
2013-03-10 23:39:00,56.6,41.1,30.04,NNE,29,1.0,9.0,56,0.00,,,0.00,WeatherCatV1.11B39,2013-03-11 03:39:00,
2013-03-10 23:44:00,56.5,41.5,30.04,NNE,17,2.0,8.0,57,0.00,,,0.00,WeatherCatV1.11B39,2013-03-11 03:44:00,
2013-03-10 23:49:00,56.5,41.5,30.04,NE,36,3.0,8.0,57,0.00,,,0.00,WeatherCatV1.11B39,2013-03-11 03:49:00,
2013-03-10 23:54:00,56.5,41.9,30.04,NNE,19,7.0,7.0,58,0.00,,,0.00,WeatherCatV1.11B39,2013-03-11 03:54:00,
2013-03-10 23:59:00,56.5,42.3,30.04,NNE,20,3.0,4.0,59,0.00,,,0.00,WeatherCatV1.11B39,2013-03-11 03:59:00,